createdAt,value
2018-08-19T00:02:13.190Z,101145.83
2018-08-19T00:04:42.136Z,101146.45
2018-08-19T00:07:11.348Z,101143.73
2018-08-19T00:09:40.279Z,101135.72
2018-08-19T00:12:09.312Z,101132.82
2018-08-19T00:14:38.373Z,101134.09
2018-08-19T00:17:07.280Z,101136.00
2018-08-19T00:19:36.445Z,101138.20
2018-08-19T00:22:05.468Z,101137.93
2018-08-19T00:24:34.479Z,101133.62
2018-08-19T00:27:03.388Z,101131.77
2018-08-19T00:29:37.218Z,101129.17
2018-08-19T00:32:06.892Z,101122.44
2018-08-19T00:34:36.161Z,101122.71
2018-08-19T00:37:06.480Z,101123.03
2018-08-19T00:39:35.753Z,101117.87
2018-08-19T00:42:05.189Z,101132.03
2018-08-19T00:44:34.688Z,101122.21
2018-08-19T00:47:03.797Z,101127.25
2018-08-19T00:49:32.732Z,101124.19
2018-08-19T00:52:02.959Z,101119.19
2018-08-19T00:54:32.636Z,101118.37
2018-08-19T00:57:01.889Z,101124.69
2018-08-19T00:59:32.078Z,101125.77
2018-08-19T01:02:01.148Z,101137.89
2018-08-19T01:04:30.073Z,101135.50
2018-08-19T01:06:59.993Z,101128.21
2018-08-19T01:09:31.413Z,101130.77
2018-08-19T01:12:00.495Z,101125.97
2018-08-19T01:14:29.445Z,101117.80
2018-08-19T01:16:58.376Z,101116.94
2018-08-19T01:19:27.307Z,101122.52
2018-08-19T01:21:56.218Z,101119.50
2018-08-19T01:24:25.184Z,101121.16
2018-08-19T01:26:54.053Z,101121.59
2018-08-19T01:29:34.776Z,101115.47
2018-08-19T01:32:09.430Z,101116.25
2018-08-19T01:34:38.421Z,101118.41
2018-08-19T01:37:07.307Z,101115.55
2018-08-19T01:39:38.141Z,101104.33
2018-08-19T01:42:07.563Z,101111.37
2018-08-19T01:44:36.416Z,101114.85
2018-08-19T01:47:05.621Z,101108.20
2018-08-19T01:49:34.521Z,101108.63
2018-08-19T01:52:03.363Z,101108.27
2018-08-19T01:54:32.392Z,101106.92
2018-08-19T01:57:02.356Z,101103.74
2018-08-19T01:59:33.280Z,101102.42
2018-08-19T02:02:04.687Z,101118.19
2018-08-19T02:04:35.504Z,101103.19
2018-08-19T02:07:04.709Z,101105.15
2018-08-19T02:09:33.620Z,101101.94
2018-08-19T02:12:02.507Z,101103.30
2018-08-19T02:14:31.343Z,101104.22
2018-08-19T02:17:00.227Z,101096.94
2018-08-19T02:19:29.097Z,101100.96
2018-08-19T02:21:57.992Z,101100.77
2018-08-19T02:24:26.914Z,101101.13
2018-08-19T02:26:55.846Z,101101.30
2018-08-19T02:29:34.644Z,101108.48
2018-08-19T02:32:04.739Z,101101.12
2018-08-19T02:34:34.863Z,101095.27
2018-08-19T02:37:18.840Z,101098.72
2018-08-19T02:39:49.104Z,101103.96
2018-08-19T02:42:25.703Z,101095.58
2018-08-19T02:45:00.608Z,101099.39
2018-08-19T02:47:29.755Z,101098.27
2018-08-19T02:49:58.712Z,101102.98
2018-08-19T02:52:28.440Z,101106.23
2018-08-19T02:54:58.869Z,101101.58
2018-08-19T02:57:28.636Z,101103.67
2018-08-19T02:59:58.152Z,101106.83
2018-08-19T03:02:31.444Z,101102.33
2018-08-19T03:05:01.784Z,101106.79
2018-08-19T03:07:31.404Z,101104.92
2018-08-19T03:10:05.692Z,101109.27
2018-08-19T03:12:34.635Z,101112.03
2018-08-19T03:15:03.612Z,101120.19
2018-08-19T03:17:33.064Z,101124.31
2018-08-19T03:20:02.113Z,101127.38
2018-08-19T03:22:31.484Z,101126.68
2018-08-19T03:25:01.128Z,101123.84
2018-08-19T03:27:30.027Z,101122.31
2018-08-19T03:30:00.226Z,101132.69
2018-08-19T03:32:29.152Z,101130.23
2018-08-19T03:35:05.439Z,101131.11
2018-08-19T03:37:34.831Z,101130.43
2018-08-19T03:40:03.882Z,101130.51
2018-08-19T03:42:32.753Z,101138.16
2018-08-19T03:45:07.203Z,101138.76
2018-08-19T03:47:36.168Z,101134.52
2018-08-19T03:50:10.352Z,101142.67
2018-08-19T03:52:39.363Z,101138.76
2018-08-19T03:55:12.519Z,101143.86
2018-08-19T03:57:41.419Z,101139.53
2018-08-19T04:00:10.884Z,101137.53
2018-08-19T04:02:39.830Z,101139.47
2018-08-19T04:05:08.728Z,101141.78
2018-08-19T04:07:37.700Z,101141.69
2018-08-19T04:10:06.652Z,101143.51
2018-08-19T04:12:35.575Z,101140.66
2018-08-19T04:15:05.692Z,101153.05
2018-08-19T04:17:34.658Z,101159.64
2018-08-19T04:20:03.640Z,101155.33
2018-08-19T04:22:32.667Z,101161.41
2018-08-19T04:25:01.513Z,101166.29
2018-08-19T04:27:30.436Z,101166.80
2018-08-19T04:30:00.329Z,101165.63
2018-08-19T04:32:31.561Z,101161.97
2018-08-19T04:35:01.414Z,101165.44
2018-08-19T04:37:30.432Z,101163.56
2018-08-19T04:40:00.454Z,101162.95
2018-08-19T04:42:29.375Z,101171.86
2018-08-19T04:44:58.260Z,101173.29
2018-08-19T04:47:31.198Z,101170.00
2018-08-19T04:50:00.313Z,101171.86
2018-08-19T04:52:29.112Z,101173.52
2018-08-19T04:54:58.053Z,101170.57
2018-08-19T04:57:26.913Z,101174.72
2018-08-19T04:59:55.715Z,101174.88
2018-08-19T05:02:24.747Z,101175.02
2018-08-19T05:04:53.722Z,101169.81
2018-08-19T05:07:22.645Z,101174.61
2018-08-19T05:09:51.545Z,101177.02
2018-08-19T05:12:20.515Z,101175.61
2018-08-19T05:14:49.419Z,101179.77
2018-08-19T05:17:18.275Z,101182.55
2018-08-19T05:19:47.128Z,101186.55
2018-08-19T05:22:16.073Z,101190.14
2018-08-19T05:24:46.460Z,101189.93
2018-08-19T05:27:16.721Z,101190.78
2018-08-19T05:29:45.623Z,101188.30
2018-08-19T05:32:15.308Z,101185.06
2018-08-19T05:34:44.232Z,101187.91
2018-08-19T05:37:13.190Z,101189.33
2018-08-19T05:39:51.243Z,101190.40
2018-08-19T05:42:20.164Z,101187.66
2018-08-19T05:44:49.005Z,101190.50
2018-08-19T05:47:18.146Z,101187.70
2018-08-19T05:49:47.963Z,101187.14
2018-08-19T05:52:18.280Z,101191.88
2018-08-19T05:54:52.821Z,101192.90
2018-08-19T05:57:21.785Z,101190.33
2018-08-19T05:59:51.792Z,101191.70
2018-08-19T06:02:54.640Z,101191.56
2018-08-19T06:05:23.604Z,101185.42
2018-08-19T06:08:02.019Z,101193.32
2018-08-19T06:10:31.013Z,101189.27
2018-08-19T06:12:59.860Z,101190.48
2018-08-19T06:15:28.983Z,101190.83
2018-08-19T06:17:57.863Z,101188.66
2018-08-19T06:20:29.419Z,101188.59
2018-08-19T06:22:58.320Z,101192.26
2018-08-19T06:25:27.236Z,101196.91
2018-08-19T06:27:57.279Z,101190.09
2018-08-19T06:30:26.308Z,101191.70
2018-08-19T06:32:55.188Z,101187.58
2018-08-19T06:35:24.064Z,101190.48
2018-08-19T06:37:52.953Z,101189.41
2018-08-19T06:40:23.056Z,101188.88
2018-08-19T06:42:52.001Z,101200.25
2018-08-19T06:45:20.968Z,101199.66
2018-08-19T06:47:49.865Z,101194.52
2018-08-19T06:50:27.713Z,101200.47
2018-08-19T06:52:57.032Z,101197.25
2018-08-19T06:55:26.204Z,101196.79
2018-08-19T06:57:57.173Z,101199.25
2018-08-19T07:00:27.291Z,101198.89
2018-08-19T07:02:57.727Z,101194.49
2018-08-19T07:05:26.648Z,101188.61
2018-08-19T07:07:55.631Z,101191.86
2018-08-19T07:10:29.865Z,101190.40
2018-08-19T07:13:05.736Z,101191.80
2018-08-19T07:15:35.231Z,101195.09
2018-08-19T07:18:04.235Z,101188.12
2018-08-19T07:20:33.224Z,101184.58
2018-08-19T07:23:02.052Z,101191.97
2018-08-19T07:25:30.980Z,101189.80
2018-08-19T07:27:59.936Z,101191.43
2018-08-19T07:30:28.807Z,101197.08
2018-08-19T07:32:57.656Z,101196.27
2018-08-19T07:35:26.477Z,101203.43
2018-08-19T07:37:55.288Z,101198.23
2018-08-19T07:40:24.200Z,101198.86
2018-08-19T07:42:53.043Z,101197.75
2018-08-19T07:45:21.972Z,101197.05
2018-08-19T07:47:50.947Z,101201.02
2018-08-19T07:50:20.028Z,101193.42
2018-08-19T07:52:48.991Z,101196.88
2018-08-19T07:55:17.811Z,101189.47
2018-08-19T07:57:46.713Z,101191.11
2018-08-19T08:00:15.716Z,101192.21
2018-08-19T08:02:44.696Z,101197.56
2018-08-19T08:05:13.560Z,101192.34
2018-08-19T08:07:46.265Z,101184.23
2018-08-19T08:10:15.309Z,101190.66
2018-08-19T08:12:44.624Z,101189.72
2018-08-19T08:15:13.478Z,101184.79
2018-08-19T08:17:42.481Z,101185.50
2018-08-19T08:20:11.432Z,101174.24
2018-08-19T08:22:40.315Z,101178.25
2018-08-19T08:25:11.786Z,101182.91
2018-08-19T08:27:40.719Z,101179.47
2018-08-19T08:30:12.599Z,101179.56
2018-08-19T08:32:44.916Z,101187.63
2018-08-19T08:35:14.030Z,101189.45
2018-08-19T08:37:43.156Z,101187.30
2018-08-19T08:40:12.644Z,101189.23
2018-08-19T08:42:45.290Z,101186.73
2018-08-19T08:45:15.458Z,101191.59
2018-08-19T08:47:44.450Z,101186.58
2018-08-19T08:50:13.731Z,101188.12
2018-08-19T08:52:44.160Z,101187.86
2018-08-19T08:55:13.761Z,101179.14
2018-08-19T08:57:42.713Z,101179.16
2018-08-19T09:00:13.105Z,101180.13
2018-08-19T09:02:41.968Z,101182.95
2018-08-19T09:05:11.965Z,101177.08
2018-08-19T09:07:41.325Z,101172.47
2018-08-19T09:10:13.048Z,101177.55
2018-08-19T09:12:46.019Z,101176.20
2018-08-19T09:15:15.009Z,101164.23
2018-08-19T09:17:44.032Z,101165.86
2018-08-19T09:20:13.168Z,101163.35
2018-08-19T09:22:42.612Z,101162.14
2018-08-19T09:25:11.783Z,101163.44
2018-08-19T09:27:41.524Z,101164.97
2018-08-19T09:30:12.481Z,101166.73
2018-08-19T09:32:59.022Z,101158.94
2018-08-19T09:35:29.839Z,101159.25
2018-08-19T09:38:03.752Z,101155.59
2018-08-19T09:40:33.511Z,101162.09
2018-08-19T09:43:02.472Z,101157.77
2018-08-19T09:45:31.740Z,101154.73
2018-08-19T09:48:01.179Z,101153.44
2018-08-19T09:50:30.072Z,101153.45
2018-08-19T09:52:58.984Z,101155.23
2018-08-19T09:55:45.284Z,101152.97
2018-08-19T09:58:16.192Z,101149.72
2018-08-19T10:00:50.123Z,101152.56
2018-08-19T10:03:19.210Z,101152.55
2018-08-19T10:05:48.109Z,101149.36
2018-08-19T10:08:17.124Z,101149.53
2018-08-19T10:10:45.932Z,101144.88
2018-08-19T10:13:16.832Z,101139.55
2018-08-19T10:15:45.780Z,101146.97
2018-08-19T10:18:14.723Z,101140.55
2018-08-19T10:20:43.694Z,101144.95
2018-08-19T10:23:12.657Z,101136.80
2018-08-19T10:25:41.585Z,101139.24
2018-08-19T10:28:10.457Z,101139.05
2018-08-19T10:30:45.062Z,101131.70
2018-08-19T10:33:14.125Z,101136.68
2018-08-19T10:35:43.043Z,101136.78
2018-08-19T10:38:12.061Z,101130.33
2018-08-19T10:40:41.079Z,101131.77
2018-08-19T10:43:10.923Z,101127.34
2018-08-19T10:45:42.304Z,101123.19
2018-08-19T10:48:13.888Z,101119.73
2018-08-19T10:50:42.728Z,101119.97
2018-08-19T10:53:26.456Z,101117.06
2018-08-19T10:55:59.298Z,101118.67
2018-08-19T10:58:28.201Z,101109.89
2018-08-19T11:00:57.137Z,101111.66
2018-08-19T11:03:26.111Z,101114.84
2018-08-19T11:05:56.292Z,101113.75
2018-08-19T11:08:25.214Z,101108.23
2018-08-19T11:10:54.169Z,101109.24
2018-08-19T11:13:25.127Z,101108.76
2018-08-19T11:15:58.049Z,101112.82
2018-08-19T11:18:29.252Z,101112.00
2018-08-19T11:21:02.868Z,101104.37
2018-08-19T11:23:31.823Z,101106.73
2018-08-19T11:26:00.680Z,101104.88
2018-08-19T11:28:36.814Z,101106.65
2018-08-19T11:31:05.977Z,101098.42
2018-08-19T11:33:43.148Z,101097.64
2018-08-19T11:36:12.609Z,101088.69
2018-08-19T11:38:42.124Z,101097.79
2018-08-19T11:41:11.943Z,101087.91
2018-08-19T11:43:43.344Z,101078.48
2018-08-19T11:46:12.409Z,101080.87
2018-08-19T11:48:41.863Z,101075.67
2018-08-19T11:51:11.175Z,101069.74
2018-08-19T11:53:40.351Z,101068.23
2018-08-19T11:56:09.261Z,101067.11
2018-08-19T11:58:39.180Z,101072.33
2018-08-19T12:01:09.613Z,101069.74
2018-08-19T12:04:02.480Z,101067.45
2018-08-19T12:06:32.573Z,101064.66
2018-08-19T12:09:02.787Z,101066.22
2018-08-19T12:11:33.324Z,101067.66
2018-08-19T12:14:08.887Z,101062.46
2018-08-19T12:16:43.874Z,101062.62
2018-08-19T12:19:18.200Z,101055.44
2018-08-19T12:21:50.967Z,101055.64
2018-08-19T12:24:22.837Z,101056.39
2018-08-19T12:26:55.191Z,101057.63
2018-08-19T12:29:25.615Z,101048.59
2018-08-19T12:32:13.488Z,101053.86
2018-08-19T12:34:46.244Z,101055.30
2018-08-19T12:37:16.097Z,101054.61
2018-08-19T12:39:45.096Z,101052.31
2018-08-19T12:42:14.053Z,101053.56
2018-08-19T12:44:43.180Z,101048.05
2018-08-19T12:47:17.351Z,101043.86
2018-08-19T12:49:47.843Z,101049.03
2018-08-19T12:52:21.431Z,101054.12
2018-08-19T12:54:54.072Z,101053.89
2018-08-19T12:57:23.335Z,101045.53
2018-08-19T12:59:52.305Z,101049.10
2018-08-19T13:02:25.925Z,101054.47
2018-08-19T13:04:54.848Z,101057.84
2018-08-19T13:07:23.752Z,101058.06
2018-08-19T13:09:52.665Z,101054.05
2018-08-19T13:12:21.635Z,101064.30
2018-08-19T13:14:50.644Z,101054.45
2018-08-19T13:17:19.592Z,101050.45
2018-08-19T13:19:59.432Z,101055.47
2018-08-19T13:22:28.860Z,101048.95
2018-08-19T13:24:57.782Z,101053.21
2018-08-19T13:27:26.740Z,101060.65
2018-08-19T13:29:55.724Z,101074.05
2018-08-19T13:32:24.712Z,101088.58
2018-08-19T13:34:53.728Z,101103.61
2018-08-19T13:37:22.702Z,101108.79
2018-08-19T13:39:51.587Z,101111.99
2018-08-19T13:42:20.515Z,101101.94
2018-08-19T13:44:49.339Z,101106.16
2018-08-19T13:47:18.260Z,101102.25
2018-08-19T13:49:47.273Z,101102.63
2018-08-19T13:52:16.145Z,101103.95
2018-08-19T13:54:55.675Z,101095.41
2018-08-19T13:57:24.623Z,101097.98
2018-08-19T13:59:53.483Z,101082.13
2018-08-19T14:02:22.339Z,101091.98
2018-08-19T14:04:51.264Z,101084.07
2018-08-19T14:07:20.196Z,101083.16
2018-08-19T14:09:49.024Z,101079.88
2018-08-19T14:12:17.892Z,101083.78
2018-08-19T14:14:46.852Z,101087.95
2018-08-19T14:17:15.798Z,101090.14
2018-08-19T14:19:44.725Z,101088.85
2018-08-19T14:22:13.753Z,101093.44
2018-08-19T14:24:42.644Z,101086.57
2018-08-19T14:27:11.444Z,101088.37
2018-08-19T14:29:40.315Z,101081.70
2018-08-19T14:32:21.180Z,101088.24
2018-08-19T14:34:50.042Z,101082.19
2018-08-19T14:37:19.016Z,101084.47
2018-08-19T14:39:47.978Z,101084.27
2018-08-19T14:42:16.848Z,101088.97
2018-08-19T14:44:45.745Z,101080.17
2018-08-19T14:47:14.594Z,101089.00
2018-08-19T14:49:43.672Z,101089.66
2018-08-19T14:52:12.639Z,101082.06
2018-08-19T14:54:41.557Z,101084.18
2018-08-19T14:57:10.517Z,101082.20
2018-08-19T14:59:39.327Z,101083.34
2018-08-19T15:02:08.633Z,101081.75
2018-08-19T15:04:37.527Z,101083.77
2018-08-19T15:07:06.456Z,101083.49
2018-08-19T15:09:35.674Z,101081.97
2018-08-19T15:12:13.702Z,101076.33
2018-08-19T15:14:42.788Z,101074.02
2018-08-19T15:17:12.180Z,101071.65
2018-08-19T15:19:49.353Z,101063.69
2018-08-19T15:22:18.270Z,101061.57
2018-08-19T15:24:47.204Z,101060.40
2018-08-19T15:27:16.071Z,101063.47
2018-08-19T15:29:46.942Z,101051.95
2018-08-19T15:32:16.011Z,101060.52
2018-08-19T15:34:44.844Z,101055.02
2018-08-19T15:37:13.648Z,101052.91
2018-08-19T15:39:42.985Z,101039.50
2018-08-19T15:42:12.337Z,101043.73
2018-08-19T15:44:41.204Z,101042.28
2018-08-19T15:47:10.285Z,101050.08
2018-08-19T15:49:39.278Z,101038.04
2018-08-19T15:52:08.228Z,101040.27
2018-08-19T15:54:37.169Z,101038.94
2018-08-19T15:57:06.345Z,101040.34
2018-08-19T15:59:36.676Z,101041.14
2018-08-19T16:02:05.769Z,101034.25
2018-08-19T16:04:34.696Z,101034.77
2018-08-19T16:07:04.124Z,101035.42
2018-08-19T16:09:32.977Z,101034.13
2018-08-19T16:12:01.960Z,101035.09
2018-08-19T16:14:31.901Z,101037.19
2018-08-19T16:17:02.823Z,101030.05
2018-08-19T16:19:31.723Z,101032.95
2018-08-19T16:22:01.057Z,101033.44
2018-08-19T16:24:30.198Z,101032.31
2018-08-19T16:26:59.076Z,101031.30
2018-08-19T16:29:27.965Z,101034.92
2018-08-19T16:31:56.937Z,101033.39
2018-08-19T16:34:25.747Z,101031.91
2018-08-19T16:36:54.661Z,101030.89
2018-08-19T16:39:23.538Z,101031.84
2018-08-19T16:41:52.439Z,101035.03
2018-08-19T16:44:21.330Z,101026.47
2018-08-19T16:46:50.241Z,101033.52
2018-08-19T16:49:19.085Z,101036.13
2018-08-19T16:51:47.988Z,101035.84
2018-08-19T16:54:16.885Z,101042.70
2018-08-19T16:56:45.865Z,101042.70
2018-08-19T16:59:14.676Z,101044.60
2018-08-19T17:01:43.644Z,101048.39
2018-08-19T17:04:12.568Z,101038.77
2018-08-19T17:06:41.447Z,101046.95
2018-08-19T17:09:10.403Z,101049.31
2018-08-19T17:11:39.215Z,101044.60
2018-08-19T17:14:08.085Z,101045.89
2018-08-19T17:16:36.917Z,101052.64
2018-08-19T17:19:05.779Z,101049.12
2018-08-19T17:21:34.767Z,101050.95
2018-08-19T17:24:03.549Z,101059.25
2018-08-19T17:26:32.567Z,101052.64
2018-08-19T17:29:06.760Z,101061.96
2018-08-19T17:31:35.689Z,101066.56
2018-08-19T17:34:14.751Z,101067.73
2018-08-19T17:36:43.627Z,101071.30
2018-08-19T17:39:16.156Z,101077.55
2018-08-19T17:41:45.050Z,101079.21
2018-08-19T17:44:14.091Z,101076.32
2018-08-19T17:46:42.936Z,101081.08
2018-08-19T17:49:17.206Z,101078.52
2018-08-19T17:51:46.146Z,101083.56
2018-08-19T17:54:20.033Z,101084.39
2018-08-19T17:56:48.971Z,101086.75
2018-08-19T17:59:17.912Z,101087.75
2018-08-19T18:01:46.760Z,101089.09
2018-08-19T18:04:15.692Z,101093.52
2018-08-19T18:06:44.512Z,101092.55
2018-08-19T18:09:15.001Z,101088.11
2018-08-19T18:11:49.351Z,101089.70
2018-08-19T18:14:18.317Z,101101.11
2018-08-19T18:16:47.413Z,101099.18
2018-08-19T18:19:16.337Z,101102.16
2018-08-19T18:21:45.271Z,101097.52
2018-08-19T18:24:14.239Z,101103.94
2018-08-19T18:26:43.223Z,101108.88
2018-08-19T18:29:12.166Z,101104.44
2018-08-19T18:31:41.159Z,101107.81
2018-08-19T18:34:10.063Z,101115.84
2018-08-19T18:36:38.948Z,101115.98
2018-08-19T18:39:10.197Z,101116.19
2018-08-19T18:41:42.509Z,101119.37
2018-08-19T18:44:12.255Z,101115.59
2018-08-19T18:46:41.119Z,101111.11
2018-08-19T18:49:12.825Z,101115.91
2018-08-19T18:51:44.349Z,101116.31
2018-08-19T18:54:31.596Z,101103.75
2018-08-19T18:57:05.843Z,101107.84
2018-08-19T18:59:34.830Z,101105.59
2018-08-19T19:02:04.532Z,101102.36
2018-08-19T19:04:33.484Z,101102.89
2018-08-19T19:07:02.467Z,101106.75
2018-08-19T19:09:42.149Z,101109.79
2018-08-19T19:12:11.212Z,101116.28
2018-08-19T19:14:40.226Z,101116.55
2018-08-19T19:17:09.094Z,101122.73
2018-08-19T19:19:52.204Z,101131.77
2018-08-19T19:22:21.151Z,101122.91
2018-08-19T19:24:52.775Z,101128.17
2018-08-19T19:27:21.691Z,101123.92
2018-08-19T19:29:55.745Z,101126.56
2018-08-19T19:32:25.174Z,101124.30
2018-08-19T19:34:54.039Z,101126.19
2018-08-19T19:37:23.240Z,101118.98
2018-08-19T19:39:57.266Z,101120.76
2018-08-19T19:42:26.349Z,101124.55
2018-08-19T19:44:55.299Z,101126.33
2018-08-19T19:47:24.164Z,101126.19
2018-08-19T19:49:57.232Z,101120.50
2018-08-19T19:52:26.144Z,101120.66
2018-08-19T19:54:55.168Z,101121.17
2018-08-19T19:57:24.236Z,101116.99
2018-08-19T19:59:53.152Z,101123.20
2018-08-19T20:02:29.138Z,101118.77
2018-08-19T20:04:58.044Z,101118.87
2018-08-19T20:07:27.345Z,101118.05
2018-08-19T20:09:56.464Z,101122.83
2018-08-19T20:12:28.829Z,101119.34
2018-08-19T20:15:00.154Z,101127.97
2018-08-19T20:17:29.164Z,101127.34
2018-08-19T20:19:57.998Z,101128.30
2018-08-19T20:22:27.008Z,101123.66
2018-08-19T20:24:55.951Z,101127.91
2018-08-19T20:27:24.806Z,101128.28
2018-08-19T20:29:54.913Z,101128.02
2018-08-19T20:32:23.935Z,101119.48
2018-08-19T20:34:52.790Z,101118.61
2018-08-19T20:37:23.874Z,101123.16
2018-08-19T20:39:53.123Z,101122.63
2018-08-19T20:42:22.029Z,101126.16
2018-08-19T20:44:50.907Z,101126.56
2018-08-19T20:47:19.716Z,101132.25
2018-08-19T20:49:50.181Z,101129.59
2018-08-19T20:52:21.665Z,101128.70
2018-08-19T20:54:50.724Z,101128.14
2018-08-19T20:57:19.582Z,101133.41
2018-08-19T20:59:48.384Z,101134.55
2018-08-19T21:02:17.235Z,101134.97
2018-08-19T21:04:46.157Z,101131.50
2018-08-19T21:07:15.019Z,101131.32
2018-08-19T21:09:44.129Z,101127.73
2018-08-19T21:12:12.963Z,101124.58
2018-08-19T21:14:41.941Z,101128.16
2018-08-19T21:17:10.897Z,101126.91
2018-08-19T21:19:40.257Z,101129.72
2018-08-19T21:22:09.236Z,101131.19
2018-08-19T21:24:38.372Z,101125.66
2018-08-19T21:27:07.175Z,101126.85
2018-08-19T21:29:36.023Z,101118.97
2018-08-19T21:32:04.972Z,101125.46
2018-08-19T21:34:33.817Z,101124.83
2018-08-19T21:37:02.813Z,101121.63
2018-08-19T21:39:31.775Z,101126.67
2018-08-19T21:42:00.611Z,101118.97
2018-08-19T21:44:29.520Z,101122.36
2018-08-19T21:46:58.485Z,101121.13
2018-08-19T21:49:27.339Z,101118.69
2018-08-19T21:51:56.167Z,101112.48
2018-08-19T21:54:25.121Z,101115.53
2018-08-19T21:56:54.064Z,101116.23
2018-08-19T21:59:24.760Z,101111.86
2018-08-19T22:02:00.614Z,101118.37
2018-08-19T22:04:30.054Z,101117.16
2018-08-19T22:06:59.036Z,101109.12
2018-08-19T22:09:34.314Z,101113.94
2018-08-19T22:12:03.739Z,101109.47
2018-08-19T22:14:33.082Z,101106.73
2018-08-19T22:17:07.034Z,101109.37
2018-08-19T22:19:35.985Z,101106.77
2018-08-19T22:22:04.911Z,101105.67
2018-08-19T22:24:34.083Z,101099.34
2018-08-19T22:27:08.265Z,101091.80
2018-08-19T22:29:37.305Z,101103.23
2018-08-19T22:32:06.234Z,101097.69
2018-08-19T22:34:35.203Z,101099.13
2018-08-19T22:37:04.316Z,101098.88
2018-08-19T22:39:33.193Z,101097.59
2018-08-19T22:42:02.000Z,101096.66
2018-08-19T22:44:30.938Z,101098.66
2018-08-19T22:46:59.858Z,101091.34
2018-08-19T22:49:29.392Z,101081.68
2018-08-19T22:52:13.484Z,101082.31
2018-08-19T22:54:42.379Z,101081.29
2018-08-19T22:57:11.300Z,101084.35
2018-08-19T22:59:40.274Z,101083.73
2018-08-19T23:02:09.190Z,101084.84
2018-08-19T23:04:38.196Z,101081.06
2018-08-19T23:07:07.228Z,101081.69
2018-08-19T23:09:36.210Z,101081.44
2018-08-19T23:12:05.156Z,101083.56
2018-08-19T23:14:44.810Z,101083.85
2018-08-19T23:17:13.795Z,101073.75
2018-08-19T23:19:42.731Z,101073.12
2018-08-19T23:22:11.574Z,101071.02
2018-08-19T23:24:40.541Z,101074.14
2018-08-19T23:27:09.409Z,101069.91
2018-08-19T23:29:38.283Z,101068.89
2018-08-19T23:32:07.137Z,101070.30
2018-08-19T23:34:35.980Z,101071.47
2018-08-19T23:37:04.953Z,101068.56
2018-08-19T23:39:33.822Z,101077.02
2018-08-19T23:42:02.924Z,101071.33
2018-08-19T23:44:32.027Z,101069.05
2018-08-19T23:47:00.897Z,101059.11
2018-08-19T23:49:29.860Z,101062.23
2018-08-19T23:51:58.921Z,101063.99
2018-08-19T23:54:27.724Z,101053.75
2018-08-19T23:56:56.546Z,101058.25
2018-08-19T23:59:31.558Z,101058.50
